Terminal Aerodrome Forecast
Issued by NWS

Home | Current Version | Previous Version | Text Only | Print | Product List | Glossary On
Versions: 1 2 3 4 5 6 7 8 9 10 11 12 13 14 15 16 17 18 19 20 21 22 23
176
FTAK31 PAJN 290222 AAA
TAFAJN
TAF AMD
PAJN 290222Z 2902/2924 08006KT P6SM SCT100 BKN200
     FM290600 10005KT P6SM BKN100 WS020/06030KT
     FM291200 08003KT P6SM BKN070 OVC100 WS020/06030KT
     FM292100 14012KT P6SM VCSH SCT030 BKN040 OVC060=

USA.gov is the U.S. government's official web portal to all federal, state and local government web resources and services.